Goshen, North Carolina
Current Conditions -  °F | °C
As of 7:15 AM on Friday 28 Nov 2014 (Local Time) from KUKF Reporting Station
Overcast Overcast  
Wind Chill: 23°   Ceiling: 4100
Heat Index: 28°   Visibility: 10mi
Dew Point: 18°   Wind: 5mph
Humidity: 64%   Direction: 230°SW
Pressure: 30.38"   Gusts: NA
Location:  36.1256°N, 81.1459°W
Report Text: KUKF 281215Z AUTO 23004KT 10SM OVC041 M02/M08 A3038 RMK AO2
Loading
Personal Weather Stations






























Interactive Weather Map New forecast layout! Learn more

10-Day Weather Forecast

Advertisements
Track Severe Weather on mobile